createdAt,value
2022-09-20T00:03:05.699Z,100133.46
2022-09-20T00:07:13.249Z,100133.80
2022-09-20T00:11:22.420Z,100130.23
2022-09-20T00:15:29.998Z,100136.35
2022-09-20T00:19:37.822Z,100140.54
2022-09-20T00:23:45.325Z,100132.96
2022-09-20T00:27:54.295Z,100139.98
2022-09-20T00:32:03.158Z,100142.14
2022-09-20T00:36:10.955Z,100146.36
2022-09-20T00:40:23.024Z,100148.36
2022-09-20T00:44:49.796Z,100146.54
2022-09-20T00:49:00.589Z,100151.56
2022-09-20T00:53:11.813Z,100156.09
2022-09-20T00:57:19.554Z,100145.80
2022-09-20T01:01:26.921Z,100145.09
2022-09-20T01:05:35.207Z,100147.63
2022-09-20T01:09:42.430Z,100148.60
2022-09-20T01:13:50.024Z,100152.10
2022-09-20T01:17:59.865Z,100147.73
2022-09-20T01:22:16.498Z,100153.81
2022-09-20T01:27:00.118Z,100152.45
2022-09-20T01:31:12.485Z,100151.07
2022-09-20T01:35:21.576Z,100152.01
2022-09-20T01:39:35.708Z,100152.44
2022-09-20T01:43:48.876Z,100157.44
2022-09-20T01:48:05.144Z,100157.44
2022-09-20T01:52:35.712Z,100161.49
2022-09-20T01:57:28.219Z,100156.70
2022-09-20T02:02:08.908Z,100158.39
2022-09-20T02:06:39.511Z,100155.27
2022-09-20T02:11:12.795Z,100158.09
2022-09-20T02:15:36.706Z,100158.57
2022-09-20T02:20:09.632Z,100159.17
2022-09-20T02:24:24.992Z,100158.38
2022-09-20T02:28:50.860Z,100159.88
2022-09-20T02:33:11.909Z,100161.02
2022-09-20T02:37:34.263Z,100167.55
2022-09-20T02:41:59.625Z,100171.13
2022-09-20T02:46:14.537Z,100175.79
2022-09-20T02:50:28.777Z,100178.06
2022-09-20T02:54:44.651Z,100177.65
2022-09-20T02:59:00.504Z,100178.91
2022-09-20T03:03:12.814Z,100182.27
2022-09-20T03:07:27.944Z,100186.86
2022-09-20T03:11:44.229Z,100183.56
2022-09-20T03:15:59.342Z,100189.73
2022-09-20T03:20:13.428Z,100184.28
2022-09-20T03:24:30.385Z,100190.20
2022-09-20T03:28:56.953Z,100198.40
2022-09-20T03:33:12.531Z,100203.05
2022-09-20T03:37:38.287Z,100201.73
2022-09-20T03:41:53.608Z,100201.84
2022-09-20T03:46:11.194Z,100198.23
2022-09-20T03:50:30.613Z,100195.30
2022-09-20T03:55:20.869Z,100195.11
2022-09-20T03:59:44.343Z,100198.19
2022-09-20T04:03:57.640Z,100204.11
2022-09-20T04:08:12.888Z,100204.13
2022-09-20T04:12:28.881Z,100207.39
2022-09-20T04:16:43.017Z,100203.61
2022-09-20T04:20:55.206Z,100203.86
2022-09-20T04:25:07.541Z,100203.77
2022-09-20T04:29:31.505Z,100206.11
2022-09-20T04:33:44.627Z,100207.50
2022-09-20T04:38:06.297Z,100209.00
2022-09-20T04:42:40.265Z,100210.23
2022-09-20T04:47:14.302Z,100217.98
2022-09-20T04:51:46.625Z,100220.45
2022-09-20T04:55:57.858Z,100225.42
2022-09-20T05:00:11.245Z,100226.13
2022-09-20T05:04:53.785Z,100227.21
2022-09-20T05:09:25.582Z,100231.06
2022-09-20T05:13:39.785Z,100231.57
2022-09-20T05:18:03.539Z,100237.32
2022-09-20T05:22:34.988Z,100248.35
2022-09-20T05:26:59.771Z,100249.81
2022-09-20T05:31:19.511Z,100254.68
2022-09-20T05:35:30.712Z,100257.44
2022-09-20T05:39:40.556Z,100259.37
2022-09-20T05:43:56.718Z,100263.54
2022-09-20T05:48:11.983Z,100265.76
2022-09-20T05:52:31.440Z,100265.56
2022-09-20T05:56:51.456Z,100272.48
2022-09-20T06:01:03.740Z,100276.06
2022-09-20T06:05:17.188Z,100279.25
2022-09-20T06:09:41.024Z,100283.77
2022-09-20T06:14:04.501Z,100285.27
2022-09-20T06:18:27.053Z,100287.85
2022-09-20T06:22:42.983Z,100288.83
2022-09-20T06:26:55.482Z,100292.23
2022-09-20T06:31:10.332Z,100291.60
2022-09-20T06:35:24.624Z,100294.23
2022-09-20T06:39:59.381Z,100296.47
2022-09-20T06:44:10.715Z,100297.66
2022-09-20T06:48:28.549Z,100298.09
2022-09-20T06:52:37.350Z,100301.38
2022-09-20T06:56:44.830Z,100300.46
2022-09-20T07:01:05.930Z,100303.75
2022-09-20T07:05:22.650Z,100311.77
2022-09-20T07:09:38.452Z,100313.70
2022-09-20T07:13:52.920Z,100316.02
2022-09-20T07:18:04.969Z,100323.42
2022-09-20T07:22:24.106Z,100328.67
2022-09-20T07:26:39.381Z,100331.88
2022-09-20T07:30:52.689Z,100341.18
2022-09-20T07:35:04.458Z,100343.39
2022-09-20T07:39:13.415Z,100347.43
2022-09-20T07:43:22.784Z,100346.52
2022-09-20T07:47:36.148Z,100350.66
2022-09-20T07:51:43.383Z,100353.64
2022-09-20T07:56:05.265Z,100360.15
2022-09-20T08:00:15.506Z,100357.77
2022-09-20T08:04:22.994Z,100353.58
2022-09-20T08:08:32.885Z,100358.16
2022-09-20T08:17:13.744Z,100363.21
2022-09-20T08:21:21.701Z,100362.94
2022-09-20T08:25:29.665Z,100361.77
2022-09-20T08:29:37.204Z,100364.41
2022-09-20T08:33:45.309Z,100367.73
2022-09-20T08:37:55.238Z,100373.08
2022-09-20T08:42:13.176Z,100377.15
2022-09-20T08:46:23.908Z,100381.02
2022-09-20T08:50:31.724Z,100379.69
2022-09-20T08:54:41.444Z,100382.81
2022-09-20T08:58:50.418Z,100388.36
2022-09-20T09:02:59.789Z,100396.88
2022-09-20T09:07:08.603Z,100399.11
2022-09-20T09:11:18.449Z,100394.41
2022-09-20T09:15:30.307Z,100401.52
2022-09-20T09:19:47.814Z,100401.17
2022-09-20T09:24:03.407Z,100402.17
2022-09-20T09:28:17.682Z,100403.23
2022-09-20T09:32:29.330Z,100402.10
2022-09-20T09:36:46.482Z,100400.86
2022-09-20T09:40:55.912Z,100403.77
2022-09-20T09:45:27.063Z,100403.92
2022-09-20T09:49:36.511Z,100396.41
2022-09-20T09:53:46.906Z,100403.20
2022-09-20T09:57:59.633Z,100405.15
2022-09-20T10:02:24.450Z,100408.78
2022-09-20T10:06:38.016Z,100411.23
2022-09-20T10:10:59.736Z,100414.71
2022-09-20T10:15:19.451Z,100415.52
2022-09-20T10:19:35.610Z,100418.00
2022-09-20T10:24:03.663Z,100417.17
2022-09-20T10:28:25.630Z,100420.61
2022-09-20T10:32:46.547Z,100422.59
2022-09-20T10:36:58.493Z,100424.35
2022-09-20T10:41:36.985Z,100421.12
2022-09-20T10:46:20.629Z,100419.56
2022-09-20T10:50:43.787Z,100421.80
2022-09-20T10:55:03.143Z,100422.55
2022-09-20T10:59:28.707Z,100419.44
2022-09-20T11:03:52.883Z,100417.24
2022-09-20T11:08:11.962Z,100414.27
2022-09-20T11:12:28.754Z,100415.31
2022-09-20T11:16:42.094Z,100406.89
2022-09-20T11:20:55.508Z,100412.09
2022-09-20T11:25:06.811Z,100409.53
2022-09-20T11:29:20.334Z,100411.05
2022-09-20T11:33:30.771Z,100406.60
2022-09-20T11:37:40.725Z,100407.13
2022-09-20T11:41:49.162Z,100411.30
2022-09-20T11:45:59.908Z,100414.19
2022-09-20T11:55:15.227Z,100420.35
2022-09-20T11:59:32.247Z,100422.65
2022-09-20T12:03:43.134Z,100417.69
2022-09-20T12:07:56.951Z,100414.44
2022-09-20T12:12:24.847Z,100416.08
2022-09-20T12:16:42.146Z,100414.14
2022-09-20T12:21:02.884Z,100417.19
2022-09-20T12:25:39.573Z,100415.17
2022-09-20T12:30:15.290Z,100411.70
2022-09-20T12:34:37.439Z,100416.05
2022-09-20T12:38:53.870Z,100411.64
2022-09-20T12:43:01.151Z,100422.96
2022-09-20T12:47:17.549Z,100421.94
2022-09-20T12:51:47.071Z,100431.19
2022-09-20T12:56:05.879Z,100438.55
2022-09-20T13:00:34.409Z,100438.70
2022-09-20T13:04:56.288Z,100438.87
2022-09-20T13:09:09.327Z,100444.68
2022-09-20T13:13:24.041Z,100443.27
2022-09-20T13:17:33.256Z,100441.46
2022-09-20T13:21:44.170Z,100444.42
2022-09-20T13:25:53.386Z,100443.90
2022-09-20T13:30:15.849Z,100445.48
2022-09-20T13:34:24.888Z,100444.73
2022-09-20T13:38:35.201Z,100450.50
2022-09-20T13:42:44.401Z,100452.38
2022-09-20T13:46:51.875Z,100446.94
2022-09-20T13:51:05.968Z,100444.58
2022-09-20T13:55:31.770Z,100435.00
2022-09-20T13:59:46.643Z,100432.09
2022-09-20T14:03:54.247Z,100428.03
2022-09-20T14:08:08.718Z,100421.27
2022-09-20T14:12:23.231Z,100419.73
2022-09-20T14:16:34.438Z,100416.56
2022-09-20T14:20:46.939Z,100418.98
2022-09-20T14:25:03.430Z,100421.64
2022-09-20T14:29:32.052Z,100417.94
2022-09-20T14:33:44.335Z,100422.69
2022-09-20T14:37:53.687Z,100424.59
2022-09-20T14:42:01.539Z,100425.67
2022-09-20T14:46:19.259Z,100423.70
2022-09-20T14:50:30.243Z,100424.26
2022-09-20T14:54:38.886Z,100431.27
2022-09-20T14:59:21.012Z,100422.46
2022-09-20T15:03:31.220Z,100431.38
2022-09-20T15:07:41.391Z,100427.41
2022-09-20T15:11:50.110Z,100427.56
2022-09-20T15:15:57.825Z,100431.71
2022-09-20T15:20:06.227Z,100439.88
2022-09-20T15:24:13.838Z,100444.41
2022-09-20T15:28:22.684Z,100446.78
2022-09-20T15:32:30.958Z,100450.21
2022-09-20T15:36:38.998Z,100454.60
2022-09-20T15:40:48.167Z,100454.95
2022-09-20T15:44:56.761Z,100456.63
2022-09-20T15:49:06.912Z,100455.02
2022-09-20T15:53:14.644Z,100453.08
2022-09-20T15:57:23.316Z,100461.25
2022-09-20T16:01:34.445Z,100467.42
2022-09-20T16:05:42.558Z,100467.54
2022-09-20T16:09:49.901Z,100468.32
2022-09-20T16:13:59.769Z,100473.86
2022-09-20T16:18:25.870Z,100484.05
2022-09-20T16:22:34.605Z,100496.49
2022-09-20T16:26:42.626Z,100500.48
2022-09-20T16:30:59.033Z,100505.32
2022-09-20T16:35:08.431Z,100510.52
2022-09-20T16:39:18.644Z,100528.42
2022-09-20T16:43:26.581Z,100532.67
2022-09-20T16:47:34.053Z,100545.77
2022-09-20T16:51:46.361Z,100557.64
2022-09-20T16:55:55.893Z,100560.75
2022-09-20T17:00:03.626Z,100576.05
2022-09-20T17:04:14.437Z,100574.41
2022-09-20T17:08:23.499Z,100574.90
2022-09-20T17:12:34.045Z,100575.14
2022-09-20T17:16:42.517Z,100581.58
2022-09-20T17:20:50.714Z,100578.17
2022-09-20T17:24:58.987Z,100590.98
2022-09-20T17:29:09.686Z,100594.92
2022-09-20T17:33:19.439Z,100604.23
2022-09-20T17:37:27.329Z,100616.27
2022-09-20T17:41:39.178Z,100620.79
2022-09-20T17:45:46.911Z,100624.17
2022-09-20T17:49:55.139Z,100626.05
2022-09-20T17:54:03.163Z,100632.38
2022-09-20T17:58:13.995Z,100633.45
2022-09-20T18:02:21.744Z,100636.37
2022-09-20T18:06:30.751Z,100638.83
2022-09-20T18:10:38.675Z,100646.45
2022-09-20T18:14:46.244Z,100648.14
2022-09-20T18:18:54.283Z,100644.79
2022-09-20T18:23:02.173Z,100645.23
2022-09-20T18:27:10.386Z,100652.46
2022-09-20T18:31:18.842Z,100657.25
2022-09-20T18:35:26.610Z,100658.91
2022-09-20T18:39:35.258Z,100665.33
2022-09-20T18:43:44.281Z,100672.77
2022-09-20T18:47:51.923Z,100672.55
2022-09-20T18:52:00.077Z,100676.16
2022-09-20T18:56:22.970Z,100679.09
2022-09-20T19:00:31.728Z,100685.92
2022-09-20T19:05:18.047Z,100691.13
2022-09-20T19:09:29.089Z,100695.91
2022-09-20T19:13:45.146Z,100700.16
2022-09-20T19:18:02.496Z,100699.15
2022-09-20T19:22:19.898Z,100701.99
2022-09-20T19:26:30.172Z,100703.08
2022-09-20T19:30:42.256Z,100701.63
2022-09-20T19:34:56.002Z,100713.38
2022-09-20T19:39:08.827Z,100715.32
2022-09-20T19:43:38.343Z,100722.98
2022-09-20T19:47:51.332Z,100725.59
2022-09-20T19:52:00.041Z,100729.66
2022-09-20T19:56:22.351Z,100731.50
2022-09-20T20:00:31.772Z,100734.47
2022-09-20T20:04:40.027Z,100740.24
2022-09-20T20:08:52.845Z,100747.02
2022-09-20T20:13:25.242Z,100749.55
2022-09-20T20:17:49.070Z,100753.14
2022-09-20T20:22:01.123Z,100754.77
2022-09-20T20:26:11.588Z,100760.37
2022-09-20T20:30:20.925Z,100762.42
2022-09-20T20:34:30.503Z,100762.88
2022-09-20T20:38:38.608Z,100760.41
2022-09-20T20:42:47.139Z,100761.17
2022-09-20T20:46:56.395Z,100767.23
2022-09-20T20:51:05.316Z,100770.78
2022-09-20T20:55:13.701Z,100773.98
2022-09-20T20:59:21.942Z,100775.98
2022-09-20T21:03:31.003Z,100774.10
2022-09-20T21:07:39.023Z,100777.47
2022-09-20T21:11:48.556Z,100780.02
2022-09-20T21:15:56.635Z,100775.40
2022-09-20T21:20:04.779Z,100774.28
2022-09-20T21:24:15.519Z,100780.69
2022-09-20T21:28:23.478Z,100784.00
2022-09-20T21:32:31.343Z,100785.73
2022-09-20T21:36:41.496Z,100791.10
2022-09-20T21:40:48.833Z,100800.01
2022-09-20T21:44:56.925Z,100795.89
2022-09-20T21:49:06.160Z,100800.34
2022-09-20T21:53:14.500Z,100801.02
2022-09-20T21:57:22.460Z,100803.56
2022-09-20T22:01:33.919Z,100804.15
2022-09-20T22:05:42.237Z,100806.17
2022-09-20T22:09:50.410Z,100805.86
2022-09-20T22:13:59.651Z,100809.42
2022-09-20T22:18:07.724Z,100810.54
2022-09-20T22:22:15.309Z,100811.21
2022-09-20T22:26:25.863Z,100812.95
2022-09-20T22:30:37.983Z,100812.24
2022-09-20T22:34:45.522Z,100814.33
2022-09-20T22:38:53.905Z,100813.66
2022-09-20T22:43:01.755Z,100816.36
2022-09-20T22:47:10.073Z,100810.48
2022-09-20T22:51:20.009Z,100813.45
2022-09-20T22:55:28.262Z,100814.23
2022-09-20T22:59:35.859Z,100810.46
2022-09-20T23:03:45.355Z,100816.08
2022-09-20T23:07:53.273Z,100816.34
2022-09-20T23:12:00.686Z,100815.48
2022-09-20T23:16:16.489Z,100815.08
2022-09-20T23:20:24.955Z,100817.96
2022-09-20T23:24:33.486Z,100819.73
2022-09-20T23:28:43.845Z,100821.78
2022-09-20T23:32:52.563Z,100821.92
2022-09-20T23:37:00.668Z,100821.83
2022-09-20T23:41:10.635Z,100821.27
2022-09-20T23:45:18.762Z,100820.16
2022-09-20T23:49:28.067Z,100826.23
2022-09-20T23:53:37.614Z,100825.42
2022-09-20T23:57:45.913Z,100829.96
